Time;durP1;ratioP1;P1;durP2;ratioP2;P2;SDS_P1;SDS_P2;PMS_P1;PMS_P2;Temp;Humidity;BMP_temperature;BMP_pressure;BME280_temperature;BME280_humidity;BME280_pressure;Samples;Min_cycle;Max_cycle;Signal;HPM_P1;HPM_P2
2020/12/19 00:02:25;;;;;;;36.50;17.97;;;;;;;3.26;79.08;100114.67;125906;1102;104478;-72
2020/12/19 00:04:52;;;;;;;34.60;18.27;;;;;;;3.22;79.57;100115.66;125837;1101;104443;-71
2020/12/19 00:07:19;;;;;;;34.17;16.67;;;;;;;3.19;79.48;100114.89;125811;1101;104419;-71
2020/12/19 00:09:46;;;;;;;33.63;18.03;;;;;;;3.19;78.83;100109.62;125870;1101;104484;-71
2020/12/19 00:12:21;;;;;;;34.63;18.47;;;;;;;3.16;79.12;100107.92;125857;1101;104420;-71
2020/12/19 00:14:50;;;;;;;32.87;17.00;;;;;;;3.13;78.87;100108.00;125844;1101;104448;-71
2020/12/19 00:17:18;;;;;;;35.37;17.80;;;;;;;3.11;79.26;100102.80;125900;1101;104547;-73
2020/12/19 00:19:45;;;;;;;45.53;24.57;;;;;;;3.11;79.08;100107.17;125888;1101;104604;-72
2020/12/19 00:22:12;;;;;;;33.40;17.40;;;;;;;3.09;79.50;100107.22;125914;1101;104423;-71
2020/12/19 00:24:41;;;;;;;32.97;16.57;;;;;;;3.05;79.35;100108.20;125922;1101;104417;-71
2020/12/19 00:27:10;;;;;;;31.70;16.80;;;;;;;3.03;79.62;100114.41;125859;1101;104489;-72
2020/12/19 00:29:39;;;;;;;34.17;16.93;;;;;;;3.01;79.37;100114.43;125839;1101;104474;-71
2020/12/19 00:32:08;;;;;;;37.43;16.17;;;;;;;2.98;79.33;100115.38;126739;1101;104442;-71
2020/12/19 00:34:53;;;;;;;29.53;15.37;;;;;;;2.96;79.04;100121.56;126360;1101;104541;-72
2020/12/19 00:37:23;;;;;;;31.37;15.50;;;;;;;2.95;79.52;100118.09;126193;1102;104528;-72
2020/12/19 00:39:53;;;;;;;33.63;16.73;;;;;;;2.93;79.28;100119.89;125822;1101;104579;-71
2020/12/19 00:42:20;;;;;;;31.27;15.20;;;;;;;2.92;79.42;100123.41;127479;1101;102159;-71
2020/12/19 00:44:48;;;;;;;32.23;15.90;;;;;;;2.91;79.06;100119.06;125797;1101;104420;-72
2020/12/19 00:47:23;;;;;;;32.27;16.17;;;;;;;2.90;78.93;100119.08;125936;1101;104478;-72
2020/12/19 00:49:52;;;;;;;32.03;16.10;;;;;;;2.89;78.88;100122.61;125922;1101;104558;-73
2020/12/19 00:52:21;;;;;;;31.23;16.03;;;;;;;2.85;79.38;100111.31;125917;1101;104896;-74
2020/12/19 00:54:49;;;;;;;30.10;15.48;;;;;;;2.83;78.85;100121.00;125972;1101;104503;-73
2020/12/19 00:57:17;;;;;;;31.53;14.20;;;;;;;2.81;78.94;100114.91;125958;1101;104481;-73
2020/12/19 00:59:43;;;;;;;30.83;13.70;;;;;;;2.79;79.01;100117.59;125875;1093;104548;-72
2020/12/19 01:02:10;;;;;;;30.73;14.80;;;;;;;2.77;78.79;100116.77;125921;1101;104557;-71
2020/12/19 01:04:37;;;;;;;33.35;15.95;;;;;;;2.77;79.33;100121.14;125871;1101;104483;-72
2020/12/19 01:07:13;;;;;;;32.53;15.40;;;;;;;2.76;78.93;100114.16;125898;1101;104420;-72
2020/12/19 01:09:39;;;;;;;32.53;14.93;;;;;;;2.74;79.01;100115.95;125831;1101;104959;-73
2020/12/19 01:12:06;;;;;;;30.37;14.80;;;;;;;2.72;78.85;100108.13;125837;1101;104417;-71
2020/12/19 01:14:38;;;;;;;31.73;15.27;;;;;;;2.70;79.23;100115.17;125849;1101;104615;-71
2020/12/19 01:17:09;;;;;;;28.70;14.40;;;;;;;2.69;79.50;100116.08;125840;1101;104417;-72
2020/12/19 01:19:36;;;;;;;31.43;13.90;;;;;;;2.67;79.26;100110.84;125840;1101;104478;-72
2020/12/19 01:22:03;;;;;;;30.30;14.93;;;;;;;2.64;79.41;100105.69;125829;1101;104525;-73
2020/12/19 01:24:30;;;;;;;27.17;13.80;;;;;;;2.63;78.99;100105.70;125813;1101;104526;-73
2020/12/19 01:26:57;;;;;;;29.30;15.20;;;;;;;2.64;78.81;100110.06;125848;1102;104567;-74
2020/12/19 01:29:24;;;;;;;32.07;14.23;;;;;;;2.63;79.66;100103.96;125771;1101;104547;-71
2020/12/19 01:31:53;;;;;;;29.40;14.67;;;;;;;2.62;79.65;100119.73;126060;1102;104420;-72
2020/12/19 01:34:21;;;;;;;28.70;13.93;;;;;;;2.58;79.17;100116.33;125783;1101;104491;-72
2020/12/19 01:36:49;;;;;;;31.70;16.30;;;;;;;2.55;79.42;100115.52;125892;1101;104480;-74
2020/12/19 01:39:16;;;;;;;31.75;15.32;;;;;;;2.55;79.35;100118.15;125809;1101;104615;-72
2020/12/19 01:41:43;;;;;;;29.40;13.33;;;;;;;2.51;79.08;100120.84;125803;1101;104531;-71
2020/12/19 01:44:10;;;;;;;29.23;13.93;;;;;;;2.44;78.82;100114.02;125893;1101;104421;-71
2020/12/19 01:46:53;;;;;;;29.03;13.87;;;;;;;2.41;78.57;100118.46;125872;1101;104480;-72
2020/12/19 01:49:30;;;;;;;31.05;16.10;;;;;;;2.40;78.75;100120.23;125895;1101;104619;-73
2020/12/19 01:52:01;;;;;;;29.27;13.60;;;;;;;2.40;79.47;100104.48;125980;1101;104555;-71
2020/12/19 01:54:30;;;;;;;29.17;14.67;;;;;;;2.40;79.38;100103.61;125788;1101;104872;-72
2020/12/19 01:57:01;;;;;;;30.27;14.50;;;;;;;2.36;78.56;100105.45;126232;1101;104414;-72
2020/12/19 01:59:32;;;;;;;32.27;15.43;;;;;;;2.33;78.60;100101.11;125820;1100;104480;-72
2020/12/19 02:02:06;;;;;;;31.63;15.67;;;;;;;2.31;79.11;100095.03;126621;1101;104417;-72
2020/12/19 02:04:34;;;;;;;30.00;13.80;;;;;;;2.32;78.55;100090.66;126003;1101;104484;-72
2020/12/19 02:07:05;;;;;;;28.80;13.23;;;;;;;2.28;78.79;100094.25;125803;1101;104484;-74
2020/12/19 02:09:41;;;;;;;28.03;13.20;;;;;;;2.22;78.39;100090.00;125877;1101;104574;-72
2020/12/19 02:12:12;;;;;;;30.37;11.97;;;;;;;2.18;79.05;100083.94;125824;1101;105167;-70
2020/12/19 02:14:43;;;;;;;27.55;13.70;;;;;;;2.14;78.80;100082.27;125938;1101;104424;-72
2020/12/19 02:17:17;;;;;;;26.90;12.40;;;;;;;2.11;78.84;100090.22;125878;1101;104756;-71
2020/12/19 02:19:44;;;;;;;;;;;;;;;2.07;78.41;100086.80;125848;1101;104929;-71
2020/12/19 02:22:11;;;;;;;25.12;11.57;;;;;;;2.00;79.25;100085.20;125833;1101;104436;-72
2020/12/19 02:24:38;;;;;;;27.37;11.53;;;;;;;1.97;78.46;100074.77;125820;1101;104426;-71
2020/12/19 02:27:06;;;;;;;27.07;11.90;;;;;;;1.92;78.78;100079.24;125782;1101;104427;-71
2020/12/19 02:29:33;;;;;;;26.67;11.63;;;;;;;1.84;78.12;100083.78;125838;1101;104438;-71
2020/12/19 02:32:03;;;;;;;29.90;12.80;;;;;;;1.76;78.11;100079.58;125762;1102;104577;-71
2020/12/19 02:34:30;;;;;;;29.73;13.93;;;;;;;1.70;78.43;100074.45;125865;1101;104526;-72
2020/12/19 02:36:57;;;;;;;29.43;14.27;;;;;;;1.62;78.79;100077.23;125837;1101;104552;-72
2020/12/19 02:39:24;;;;;;;32.15;13.88;;;;;;;1.53;78.76;100072.16;125853;1102;104481;-71
2020/12/19 02:41:56;;;;;;;27.77;13.10;;;;;;;1.48;78.56;100072.23;125807;1101;104506;-71
2020/12/19 02:44:23;;;;;;;27.93;13.07;;;;;;;1.43;78.46;100079.31;125902;1101;104919;-71
2020/12/19 02:46:50;;;;;;;27.90;12.53;;;;;;;1.40;78.42;100078.52;125863;1101;104430;-72
2020/12/19 02:49:22;;;;;;;27.65;12.68;;;;;;;1.36;78.71;100084.72;125909;1101;104926;-71
2020/12/19 02:51:49;;;;;;;27.50;12.90;;;;;;;1.31;78.83;100082.19;125907;1101;104425;-71
2020/12/19 02:54:19;;;;;;;27.77;13.17;;;;;;;1.30;78.74;100083.93;125940;1101;104564;-71
2020/12/19 02:56:46;;;;;;;26.87;12.43;;;;;;;1.29;78.66;100078.73;125772;1101;104423;-71
2020/12/19 02:59:12;;;;;;;24.50;10.13;;;;;;;1.26;79.06;100065.67;125843;1101;104424;-70
2020/12/19 03:01:39;;;;;;;28.50;13.03;;;;;;;1.21;78.74;100072.76;125824;1101;104484;-71
2020/12/19 03:04:06;;;;;;;27.03;12.83;;;;;;;1.20;79.07;100061.42;125829;1101;104414;-71
2020/12/19 03:06:38;;;;;;;24.67;12.07;;;;;;;1.19;79.26;100063.16;125868;1102;105045;-70
2020/12/19 03:09:05;;;;;;;24.80;11.63;;;;;;;1.21;78.69;100067.52;126720;1101;104429;-70
2020/12/19 03:11:32;;;;;;;26.57;10.97;;;;;;;1.21;78.99;100057.03;125914;1102;104421;-71
2020/12/19 03:14:00;;;;;;;23.93;10.30;;;;;;;1.22;78.58;100058.76;125874;1096;104502;-70
2020/12/19 03:16:28;;;;;;;28.47;13.03;;;;;;;1.23;78.72;100057.87;125863;1102;104421;-71
2020/12/19 03:18:55;;;;;;;24.07;10.18;;;;;;;1.23;78.73;100058.72;125814;1102;104439;-71
2020/12/19 03:21:22;;;;;;;24.97;11.17;;;;;;;1.20;79.17;100053.56;125816;1101;104413;-69
2020/12/19 03:23:49;;;;;;;21.52;8.83;;;;;;;1.18;78.68;100058.81;125775;1101;104548;-70
2020/12/19 03:26:17;;;;;;;23.33;10.27;;;;;;;1.15;78.99;100053.63;125795;1101;104564;-70
2020/12/19 03:28:44;;;;;;;25.67;11.33;;;;;;;1.11;78.72;100053.72;125751;1101;104711;-72
2020/12/19 03:31:11;;;;;;;23.53;11.00;;;;;;;1.05;78.77;100049.44;125892;1102;104477;-72
2020/12/19 03:33:38;;;;;;;25.20;10.95;;;;;;;1.02;79.11;100052.98;125934;1102;104490;-72
2020/12/19 03:36:06;;;;;;;24.13;10.20;;;;;;;0.97;78.66;100062.67;125850;1101;104500;-71
2020/12/19 03:38:32;;;;;;;23.53;10.83;;;;;;;0.90;78.84;100071.53;126552;1102;104421;-70
2020/12/19 03:40:59;;;;;;;24.03;10.57;;;;;;;0.84;78.85;100064.65;125814;1101;104449;-70
2020/12/19 03:43:26;;;;;;;23.52;10.75;;;;;;;0.80;78.94;100056.88;125904;1101;104426;-71
2020/12/19 03:45:53;;;;;;;22.87;10.23;;;;;;;0.75;79.19;100051.70;125853;1101;104554;-71
2020/12/19 03:48:25;;;;;;;22.45;9.20;;;;;;;0.71;78.96;100043.04;126569;1101;104548;-71
2020/12/19 03:50:52;;;;;;;21.93;9.27;;;;;;;0.69;78.93;100046.55;125920;1101;104548;-70
2020/12/19 03:53:19;;;;;;;25.48;10.53;;;;;;;0.67;78.78;100046.59;125943;1102;104611;-71
2020/12/19 03:55:46;;;;;;;24.70;11.35;;;;;;;0.64;78.88;100046.64;125868;1101;104445;-71
2020/12/19 03:58:17;;;;;;;22.40;10.15;;;;;;;0.65;79.16;100044.88;125837;1102;104549;-72
2020/12/19 04:00:45;;;;;;;23.77;10.20;;;;;;;0.65;79.16;100035.28;125843;1101;104579;-71
2020/12/19 04:03:12;;;;;;;23.17;10.10;;;;;;;0.66;79.34;100049.22;125814;1101;104485;-70
2020/12/19 04:05:39;;;;;;;22.10;9.13;;;;;;;0.67;79.29;100038.73;125857;1101;105176;-71
2020/12/19 04:08:05;;;;;;;22.35;9.20;;;;;;;0.67;79.28;100041.36;126167;1101;104554;-69
2020/12/19 04:10:32;;;;;;;21.73;9.77;;;;;;;0.68;78.96;100043.09;125997;1101;104983;-70
2020/12/19 04:12:59;;;;;;;21.53;9.27;;;;;;;0.69;78.99;100046.55;125873;1101;104550;-70
2020/12/19 04:15:26;;;;;;;23.13;10.83;;;;;;;0.70;79.69;100057.02;125783;1101;104611;-70
2020/12/19 04:17:54;;;;;;;25.83;11.23;;;;;;;0.73;79.21;100040.37;125820;1101;104922;-71
2020/12/19 04:20:22;;;;;;;22.57;10.83;;;;;;;0.76;79.31;100047.34;126395;1102;104427;-73
2020/12/19 04:22:48;;;;;;;23.57;10.37;;;;;;;0.78;79.31;100035.09;125845;1101;104449;-73
2020/12/19 04:25:17;;;;;;;20.93;9.17;;;;;;;0.79;79.58;100029.80;125999;1093;104458;-73
2020/12/19 04:27:44;;;;;;;23.47;9.90;;;;;;;0.81;79.42;100035.88;125873;1101;104408;-72
2020/12/19 04:30:12;;;;;;;22.13;9.60;;;;;;;0.82;79.32;100031.49;125848;1101;104555;-72
2020/12/19 04:32:40;;;;;;;20.13;8.63;;;;;;;0.83;79.11;100034.11;126346;1101;104943;-71
2020/12/19 04:35:07;;;;;;;22.97;10.30;;;;;;;0.84;79.20;100032.33;125826;1101;104618;-70
2020/12/19 04:37:35;;;;;;;20.80;9.00;;;;;;;0.85;78.92;100028.83;125869;1101;104488;-70
2020/12/19 04:40:04;;;;;;;22.35;8.83;;;;;;;0.85;79.43;100032.33;125795;1102;104449;-70
2020/12/19 04:42:35;;;;;;;24.47;11.30;;;;;;;0.84;79.39;100022.73;126555;1101;104421;-70
2020/12/19 04:45:09;;;;;;;22.80;10.17;;;;;;;0.85;79.69;100024.47;126053;1101;104615;-70
2020/12/19 04:47:40;;;;;;;25.70;10.50;;;;;;;0.87;79.67;100022.69;125871;1102;104480;-71
2020/12/19 04:50:07;;;;;;;23.20;9.97;;;;;;;0.91;79.56;100023.48;125887;1101;104481;-71
2020/12/19 04:52:34;;;;;;;25.90;11.97;;;;;;;0.90;79.40;100016.52;125812;1101;104887;-71
2020/12/19 04:55:06;;;;;;;23.70;10.30;;;;;;;0.91;79.73;100020.02;125874;1101;104478;-69
2020/12/19 04:57:34;;;;;;;23.37;9.97;;;;;;;0.89;79.10;100025.27;125856;1101;104458;-70
2020/12/19 05:00:05;;;;;;;22.27;10.30;;;;;;;0.86;79.23;100017.45;125841;1101;104420;-71
2020/12/19 05:02:33;;;;;;;26.43;12.00;;;;;;;0.83;79.40;100020.13;126794;1101;104573;-70
2020/12/19 05:05:09;;;;;;;26.87;13.00;;;;;;;0.79;79.54;100026.34;125835;1101;104547;-71
2020/12/19 05:07:39;;;;;;;25.33;11.70;;;;;;;0.75;79.32;100028.13;125863;1101;104504;-70
2020/12/19 05:10:06;;;;;;;25.40;11.27;;;;;;;0.73;79.36;100024.67;126018;1101;104465;-71
2020/12/19 05:12:34;;;;;;;25.00;12.30;;;;;;;0.72;79.32;100036.03;125858;1101;104877;-70
2020/12/19 05:15:06;;;;;;;26.93;12.57;;;;;;;0.68;79.40;100034.35;125891;1101;104464;-70
2020/12/19 05:17:33;;;;;;;25.07;12.03;;;;;;;0.67;79.43;100025.65;125866;1093;104441;-70
2020/12/19 05:20:05;;;;;;;26.95;12.30;;;;;;;0.65;79.70;100031.78;125820;1101;104548;-70
2020/12/19 05:22:34;;;;;;;25.60;12.37;;;;;;;0.62;79.59;100035.33;125906;1101;104422;-70
2020/12/19 05:25:03;;;;;;;28.07;11.93;;;;;;;0.59;79.29;100037.99;125816;1101;104570;-71
2020/12/19 05:27:30;;;;;;;27.93;13.13;;;;;;;0.56;79.18;100038.04;125811;1093;104411;-70
2020/12/19 05:29:57;;;;;;;27.37;13.23;;;;;;;0.54;79.21;100030.23;125894;1101;104443;-70
2020/12/19 05:32:32;;;;;;;28.23;13.30;;;;;;;0.50;79.15;100032.90;126033;1101;104504;-70
2020/12/19 05:34:59;;;;;;;25.00;11.63;;;;;;;0.48;79.68;100030.32;125887;1101;104481;-70
2020/12/19 05:37:26;;;;;;;26.47;12.40;;;;;;;0.44;79.35;100034.72;125833;1101;104481;-69
2020/12/19 05:39:53;;;;;;;28.23;13.60;;;;;;;0.41;79.12;100034.77;125746;1101;104503;-69
2020/12/19 05:42:23;;;;;;;25.30;11.33;;;;;;;0.41;79.33;100039.15;126759;1102;104420;-70
2020/12/19 05:44:52;;;;;;;26.47;11.83;;;;;;;0.38;79.83;100034.84;126864;1101;102836;-71
2020/12/19 05:47:19;;;;;;;27.40;13.33;;;;;;;0.38;79.88;100039.20;125757;1101;104440;-70
2020/12/19 05:49:47;;;;;;;30.20;14.80;;;;;;;0.40;79.52;100040.03;125780;1101;104481;-70
2020/12/19 05:52:21;;;;;;;30.75;15.70;;;;;;;0.40;79.60;100038.30;126514;1101;104504;-70
2020/12/19 05:54:57;;;;;;;26.73;12.13;;;;;;;0.41;79.55;100036.53;125933;1101;104519;-70
2020/12/19 05:57:27;;;;;;;26.90;12.40;;;;;;;0.41;79.66;100041.77;125892;1101;104548;-71
2020/12/19 05:59:59;;;;;;;29.00;13.60;;;;;;;0.41;79.61;100033.92;126881;1101;104416;-70
2020/12/19 06:02:32;;;;;;;26.55;12.30;;;;;;;0.42;79.43;100035.64;125827;1101;104558;-70
2020/12/19 06:05:01;;;;;;;23.70;11.15;;;;;;;0.41;79.89;100039.15;125968;1101;104411;-71
2020/12/19 06:07:34;;;;;;;27.87;12.27;;;;;;;0.38;79.83;100041.81;126124;1101;104501;-71
2020/12/19 06:10:10;;;;;;;26.50;11.80;;;;;;;0.37;79.58;100045.31;126804;1101;104484;-70
2020/12/19 06:13:05;;;;;;;29.63;15.27;;;;;;;0.33;79.45;100046.25;125784;1101;104482;-70
2020/12/19 06:15:38;;;;;;;34.13;17.77;;;;;;;0.28;79.56;100048.95;125901;1101;104419;-70
2020/12/19 06:18:26;;;;;;;37.93;19.17;;;;;;;0.26;79.79;100048.09;125826;1101;104485;-71
2020/12/19 06:20:58;;;;;;;40.00;20.93;;;;;;;0.24;79.63;100050.72;125916;1101;104551;-70
2020/12/19 06:23:35;;;;;;;35.70;18.23;;;;;;;0.23;79.67;100050.77;125881;1101;104605;-69
2020/12/19 06:26:05;;;;;;;38.05;20.10;;;;;;;0.21;79.72;100052.53;125838;1101;104545;-70
2020/12/19 06:28:39;;;;;;;39.73;20.63;;;;;;;0.21;79.56;100048.15;125860;1101;104462;-69
2020/12/19 06:31:20;;;;;;;37.73;20.40;;;;;;;0.20;79.63;100058.65;125798;1101;104465;-70
2020/12/19 06:33:54;;;;;;;36.97;19.17;;;;;;;0.18;79.84;100063.92;125828;1101;104506;-71
2020/12/19 06:36:29;;;;;;;42.63;23.60;;;;;;;0.17;79.59;100054.34;126548;1101;105591;-70
2020/12/19 06:39:05;;;;;;;59.27;38.83;;;;;;;0.17;79.81;100056.95;125997;1093;104480;-70
2020/12/19 06:41:41;;;;;;;61.47;44.97;;;;;;;0.17;79.66;100063.92;125789;1101;104418;-71
2020/12/19 06:44:29;;;;;;;50.47;33.37;;;;;;;0.18;79.62;100069.16;125838;1101;104679;-70
2020/12/19 06:47:17;;;;;;;44.83;26.73;;;;;;;0.19;79.71;100065.66;125851;1101;104487;-72
2020/12/19 06:49:53;;;;;;;35.13;20.23;;;;;;;0.23;79.92;100061.23;125822;1101;104442;-70
2020/12/19 06:52:23;;;;;;;33.50;16.83;;;;;;;0.25;79.94;100065.53;125884;1101;104478;-71
2020/12/19 06:54:51;;;;;;;33.85;14.75;;;;;;;0.27;79.80;100058.53;125717;1101;104606;-69
2020/12/19 06:57:30;;;;;;;28.00;12.80;;;;;;;0.31;79.80;100056.75;125806;1097;105580;-70
2020/12/19 07:00:17;;;;;;;30.87;15.27;;;;;;;0.35;79.83;100057.56;125842;1100;104919;-74
2020/12/19 07:02:52;;;;;;;31.30;15.10;;;;;;;0.38;79.65;100055.78;125992;1101;104542;-72
2020/12/19 07:05:33;;;;;;;29.90;15.27;;;;;;;0.42;79.91;100056.59;127600;1101;102199;-70
2020/12/19 07:08:16;;;;;;;27.97;14.77;;;;;;;0.49;79.98;100055.61;126489;1101;104391;-72
2020/12/19 07:10:43;;;;;;;32.95;16.05;;;;;;;0.54;79.93;100060.77;125864;1101;104423;-70
2020/12/19 07:13:16;;;;;;;31.10;16.97;;;;;;;0.61;80.30;100064.17;127460;1102;104477;-71
2020/12/19 07:15:49;;;;;;;36.47;20.13;;;;;;;0.65;80.06;100061.47;125900;1101;104535;-70
2020/12/19 07:18:26;;;;;;;32.77;17.60;;;;;;;0.71;79.74;100063.99;125912;1101;104859;-70
2020/12/19 07:21:04;;;;;;;31.60;16.63;;;;;;;0.73;79.69;100063.95;125941;1101;104414;-71
2020/12/19 07:23:38;;;;;;;30.85;16.15;;;;;;;0.77;80.31;100067.41;125854;1101;104603;-74
2020/12/19 07:26:14;;;;;;;33.20;16.77;;;;;;;0.81;79.88;100061.23;126673;1101;104484;-71
2020/12/19 07:28:47;;;;;;;31.00;15.40;;;;;;;0.82;79.76;100057.69;125888;1101;104398;-71
2020/12/19 07:31:19;;;;;;;28.85;14.30;;;;;;;0.86;79.80;100049.77;125918;1101;104525;-73
2020/12/19 07:33:51;;;;;;;30.13;14.83;;;;;;;0.91;80.52;100056.69;125952;1101;104989;-76
2020/12/19 07:36:24;;;;;;;27.37;15.07;;;;;;;0.94;79.95;100054.87;125906;1101;104437;-74
2020/12/19 07:39:09;;;;;;;28.30;14.25;;;;;;;0.96;79.91;100054.86;125843;1101;104477;-74
2020/12/19 07:41:37;;;;;;;29.87;14.23;;;;;;;0.98;80.47;100055.70;125825;1101;104548;-72
2020/12/19 07:44:17;;;;;;;28.87;14.00;;;;;;;1.00;79.86;100052.15;126768;1101;104423;-71
2020/12/19 07:46:51;;;;;;;28.70;14.13;;;;;;;1.02;79.76;100055.61;125883;1102;104535;-73
2020/12/19 07:49:48;;;;;;;31.60;14.87;;;;;;;1.06;80.08;100056.41;125916;1101;104609;-71
2020/12/19 07:52:21;;;;;;;28.07;13.00;;;;;;;1.10;80.38;100050.22;125881;1101;104899;-75
2020/12/19 07:55:04;;;;;;;30.97;14.87;;;;;;;1.13;80.06;100044.92;125809;1101;104899;-72
2020/12/19 07:57:32;;;;;;;31.93;15.33;;;;;;;1.15;80.30;100037.90;125992;1101;104413;-70
2020/12/19 08:00:06;;;;;;;30.97;14.43;;;;;;;1.21;80.29;100038.69;126802;1101;103291;-71
2020/12/19 08:02:38;;;;;;;31.77;14.10;;;;;;;1.26;80.59;100039.47;125833;1101;104423;-73
2020/12/19 08:05:05;;;;;;;32.37;15.63;;;;;;;1.30;79.98;100035.89;126030;1101;104436;-74
2020/12/19 08:07:34;;;;;;;33.50;14.93;;;;;;;1.36;80.27;100040.14;125839;1101;105026;-71
2020/12/19 08:10:07;;;;;;;37.43;17.67;;;;;;;1.42;80.75;100037.41;125848;1102;104420;-73
2020/12/19 08:12:39;;;;;;;38.28;17.27;;;;;;;1.47;80.59;100038.19;126285;1102;104420;-71
2020/12/19 08:15:12;;;;;;;44.07;19.47;;;;;;;1.56;80.49;100039.75;125901;1101;104478;-75
2020/12/19 08:17:53;;;;;;;36.07;16.57;;;;;;;1.65;80.30;100039.58;125898;1101;104449;-74
2020/12/19 08:20:26;;;;;;;35.27;16.07;;;;;;;1.75;80.70;100033.25;125899;1101;104554;-73
2020/12/19 08:22:55;;;;;;;;;;;;;;;1.84;80.14;100036.55;125976;1101;104439;-72
2020/12/19 08:25:23;;;;;;;40.50;17.67;;;;;;;1.86;80.59;100027.77;125908;1101;105074;-72
2020/12/19 08:27:51;;;;;;;46.77;21.10;;;;;;;1.92;80.07;100029.39;127815;1101;102428;-74
2020/12/19 08:30:25;;;;;;;44.20;21.50;;;;;;;1.95;80.15;100026.70;127902;1101;102508;-72
2020/12/19 08:33:03;;;;;;;47.40;20.70;;;;;;;2.01;80.22;100028.34;125922;1101;104532;-76
2020/12/19 08:35:40;;;;;;;36.63;17.73;;;;;;;2.08;79.99;100024.66;125817;1101;104468;-77
2020/12/19 08:38:26;;;;;;;29.53;13.07;;;;;;;2.17;79.78;100026.23;125845;1101;104454;-79
2020/12/19 08:40:58;;;;;;;31.27;13.23;;;;;;;2.28;80.79;100024.20;127651;1101;104939;-78
2020/12/19 08:43:33;;;;;;;25.20;11.13;;;;;;;2.38;80.11;100030.13;125851;1101;104504;-74
2020/12/19 08:46:14;;;;;;;24.90;10.67;;;;;;;2.50;79.97;100029.81;125770;1101;104420;-74
2020/12/19 08:48:46;;;;;;;;;;;;;;;2.64;80.84;100034.76;125880;1101;104443;-70
2020/12/19 08:51:14;;;;;;;25.30;11.70;;;;;;;2.83;80.86;100029.03;125816;1101;104663;-74
2020/12/19 08:53:42;;;;;;;27.53;11.90;;;;;;;3.11;80.75;100023.05;127293;1101;104427;-74
2020/12/19 08:56:25;;;;;;;25.37;11.05;;;;;;;3.42;80.48;100025.70;125951;1101;104416;-76
2020/12/19 08:58:55;;;;;;;24.82;10.88;;;;;;;3.70;80.80;100024.06;125893;1101;104545;-75
2020/12/19 09:01:23;;;;;;;24.50;10.47;;;;;;;3.98;80.87;100021.48;125927;1101;104416;-75
2020/12/19 09:03:52;;;;;;;24.90;11.00;;;;;;;4.25;80.44;100012.79;125756;1101;104542;-72
2020/12/19 09:06:19;;;;;;;25.00;10.70;;;;;;;4.62;80.67;100011.59;125836;1102;104491;-75
2020/12/19 09:08:52;;;;;;;24.12;10.18;;;;;;;5.08;80.67;100003.89;125884;1101;104548;-78
2020/12/19 09:11:27;;;;;;;23.40;10.37;;;;;;;5.44;79.57;99997.36;127504;1101;104478;-74
2020/12/19 09:14:12;;;;;;;26.10;11.70;;;;;;;5.75;79.86;99998.85;126103;1102;104557;-74
2020/12/19 09:16:51;;;;;;;23.50;10.45;;;;;;;6.07;79.08;99995.01;125892;1101;104579;-78
2020/12/19 09:19:20;;;;;;;22.63;10.20;;;;;;;6.42;78.94;99998.94;125862;1093;104784;-78
2020/12/19 09:21:57;;;;;;;20.97;9.53;;;;;;;6.66;79.34;99995.27;127523;1102;102178;-77
2020/12/19 09:24:31;;;;;;;21.57;9.30;;;;;;;6.74;78.86;99994.10;125886;1102;104475;-73
2020/12/19 09:26:58;;;;;;;25.63;10.20;;;;;;;6.79;79.55;99992.13;125891;1101;104605;-73
2020/12/19 09:29:25;;;;;;;20.77;8.63;;;;;;;6.80;78.88;99992.05;125889;1101;104416;-74
2020/12/19 09:31:52;;;;;;;22.20;9.27;;;;;;;6.82;79.11;99987.55;125910;1101;104497;-75
2020/12/19 09:34:19;;;;;;;21.62;9.63;;;;;;;6.85;79.21;99989.23;125876;1101;104582;-73
2020/12/19 09:36:46;;;;;;;21.43;9.53;;;;;;;6.88;79.20;99986.45;125461;1101;104512;-77
2020/12/19 09:39:14;;;;;;;19.10;7.77;;;;;;;6.93;79.26;99984.44;125640;1101;103237;-76
2020/12/19 09:41:45;;;;;;;21.33;9.25;;;;;;;6.80;78.85;99984.11;125804;1093;104586;-75
2020/12/19 09:44:12;;;;;;;19.27;8.57;;;;;;;6.69;78.99;99989.02;125489;1093;104445;-75
2020/12/19 09:46:39;;;;;;;20.93;9.47;;;;;;;6.63;79.13;99984.83;125630;1093;104541;-84
2020/12/19 09:49:06;;;;;;;20.93;10.47;;;;;;;6.73;79.76;99984.45;125553;1096;104490;-80
2020/12/19 09:51:33;;;;;;;20.73;9.23;;;;;;;6.77;79.58;99981.59;125555;1093;104888;-82
2020/12/19 09:54:01;;;;;;;21.93;9.90;;;;;;;6.77;79.79;99988.69;126234;1101;104487;-81
2020/12/19 09:56:28;;;;;;;21.93;9.80;;;;;;;6.80;79.79;99984.11;125722;1093;104416;-78
2020/12/19 09:58:55;;;;;;;20.67;9.37;;;;;;;6.75;79.22;99987.89;125707;1093;104414;-79
2020/12/19 10:01:22;;;;;;;21.50;9.73;;;;;;;6.75;79.26;99974.67;125681;1093;104536;-78
2020/12/19 10:03:50;;;;;;;21.10;9.50;;;;;;;6.80;79.54;99973.53;125768;1093;104528;-83
2020/12/19 10:06:17;;;;;;;19.90;8.67;;;;;;;6.81;78.97;99977.90;125804;1093;104536;-83
2020/12/19 10:08:44;;;;;;;22.07;10.27;;;;;;;6.80;79.00;99978.83;125839;1093;104523;-85
2020/12/19 10:11:12;;;;;;;21.47;9.87;;;;;;;6.87;79.26;99970.63;125744;1101;104413;-83
2020/12/19 10:13:39;;;;;;;22.03;10.70;;;;;;;6.88;79.55;99973.23;125780;1101;104455;-82
2020/12/19 10:16:06;;;;;;;21.67;9.47;;;;;;;6.82;79.38;99976.13;125791;1101;104557;-82
2020/12/19 10:18:33;;;;;;;23.27;10.97;;;;;;;6.79;78.78;99963.04;125834;1093;104995;-81
2020/12/19 10:21:01;;;;;;;24.90;11.47;;;;;;;6.83;79.01;99969.92;125808;1093;104477;-80
2020/12/19 10:23:29;;;;;;;24.77;10.70;;;;;;;6.88;78.84;99961.78;125778;1101;104535;-84
2020/12/19 10:25:57;;;;;;;23.63;10.70;;;;;;;6.87;79.36;99965.34;125797;1101;104406;-82
2020/12/19 10:28:23;;;;;;;20.50;9.30;;;;;;;6.93;79.48;99965.93;125799;1093;104465;-84
2020/12/19 10:30:50;;;;;;;22.77;10.07;;;;;;;7.00;78.81;99962.09;125754;1096;105089;-83
2020/12/19 10:33:17;;;;;;;24.03;11.43;;;;;;;7.04;78.82;99959.32;125759;1097;104574;-84
2020/12/19 10:35:46;;;;;;;21.20;9.67;;;;;;;7.02;79.13;99956.76;125887;1093;104445;-80
2020/12/19 10:38:14;;;;;;;21.13;10.17;;;;;;;7.03;79.09;99961.13;125822;1101;104898;-76
2020/12/19 10:40:57;;;;;;;23.07;10.20;;;;;;;7.09;79.08;99950.27;125784;1093;104439;-78
2020/12/19 10:43:25;;;;;;;25.17;11.70;;;;;;;7.17;79.21;99943.75;125829;1101;104525;-80
2020/12/19 10:45:52;;;;;;;25.27;11.40;;;;;;;7.12;78.71;99944.84;125780;1101;104496;-78
2020/12/19 10:48:19;;;;;;;23.17;11.07;;;;;;;7.08;79.01;99939.74;125568;1101;104551;-79
2020/12/19 10:50:46;;;;;;;22.17;11.00;;;;;;;7.05;78.77;99940.75;125764;1093;104673;-79
2020/12/19 10:53:13;;;;;;;22.07;10.50;;;;;;;7.03;78.73;99937.31;125779;1093;104414;-82
2020/12/19 10:55:40;;;;;;;24.50;10.87;;;;;;;7.02;78.74;99940.88;125746;1101;104461;-77
2020/12/19 10:58:07;;;;;;;22.57;10.20;;;;;;;7.06;78.94;99939.83;125874;1093;104416;-78
2020/12/19 11:00:34;;;;;;;21.80;10.53;;;;;;;7.11;78.89;99939.61;125672;1093;104490;-77
2020/12/19 11:03:01;;;;;;;24.12;11.28;;;;;;;7.18;78.24;99937.54;125592;1093;104416;-77
2020/12/19 11:05:28;;;;;;;24.33;11.50;;;;;;;7.25;78.78;99936.34;125614;1093;104546;-81
2020/12/19 11:07:55;;;;;;;23.37;11.20;;;;;;;7.33;78.64;99941.31;125618;1093;104901;-76
2020/12/19 11:10:22;;;;;;;24.93;11.03;;;;;;;7.32;78.56;99944.88;126026;1093;104525;-78
2020/12/19 11:12:49;;;;;;;23.40;10.80;;;;;;;7.25;77.80;99936.34;125607;1093;104577;-78
2020/12/19 11:15:18;;;;;;;22.67;10.07;;;;;;;7.16;77.83;99929.69;125648;1093;104898;-78
2020/12/19 11:17:45;;;;;;;24.07;10.63;;;;;;;7.16;78.48;99937.63;125611;1093;104517;-77
2020/12/19 11:20:13;;;;;;;21.57;10.40;;;;;;;7.14;78.35;99926.25;125533;1093;104475;-77